sensor_id;sensor_type;location;lat;lon;timestamp;pressure;altitude;pressure_sealevel;temperature;humidity
15694;BME280;7947;48.834;9.132;2022-12-22T00:02:37;97647.13;;;10.69;81.63
15694;BME280;7947;48.834;9.132;2022-12-22T00:05:57;97634.31;;;10.66;82.24
15694;BME280;7947;48.834;9.132;2022-12-22T00:09:19;97632.41;;;10.67;81.93
15694;BME280;7947;48.834;9.132;2022-12-22T00:12:39;97632.09;;;10.68;81.99
15694;BME280;7947;48.834;9.132;2022-12-22T00:15:59;97620.38;;;10.64;81.97
15694;BME280;7947;48.834;9.132;2022-12-22T00:19:19;97624.44;;;10.62;82.21
15694;BME280;7947;48.834;9.132;2022-12-22T00:22:40;97619.09;;;10.57;82.60
15694;BME280;7947;48.834;9.132;2022-12-22T00:26:01;97620.44;;;10.59;82.59
15694;BME280;7947;48.834;9.132;2022-12-22T00:29:22;97611.03;;;10.62;82.12
15694;BME280;7947;48.834;9.132;2022-12-22T00:32:42;97606.09;;;10.69;82.30
15694;BME280;7947;48.834;9.132;2022-12-22T00:36:03;97613.59;;;10.72;82.16
15694;BME280;7947;48.834;9.132;2022-12-22T00:39:25;97616.41;;;10.80;81.85
15694;BME280;7947;48.834;9.132;2022-12-22T00:42:46;97618.06;;;10.76;82.56
15694;BME280;7947;48.834;9.132;2022-12-22T00:46:08;97623.44;;;10.76;82.43
15694;BME280;7947;48.834;9.132;2022-12-22T00:49:32;97611.03;;;10.80;82.67
15694;BME280;7947;48.834;9.132;2022-12-22T00:52:53;97609.38;;;10.84;82.39
15694;BME280;7947;48.834;9.132;2022-12-22T00:56:14;97611.00;;;10.85;83.06
15694;BME280;7947;48.834;9.132;2022-12-22T00:59:36;97605.84;;;10.89;83.86
15694;BME280;7947;48.834;9.132;2022-12-22T01:02:56;97607.06;;;10.97;84.25
15694;BME280;7947;48.834;9.132;2022-12-22T01:06:17;97599.97;;;11.06;84.43
15694;BME280;7947;48.834;9.132;2022-12-22T01:09:37;97605.41;;;11.01;84.93
15694;BME280;7947;48.834;9.132;2022-12-22T01:12:57;97597.66;;;10.99;85.85
15694;BME280;7947;48.834;9.132;2022-12-22T01:16:19;97606.25;;;10.96;86.43
15694;BME280;7947;48.834;9.132;2022-12-22T01:19:39;97602.50;;;10.97;86.08
15694;BME280;7947;48.834;9.132;2022-12-22T01:22:59;97613.47;;;11.01;86.69
15694;BME280;7947;48.834;9.132;2022-12-22T01:26:20;97608.66;;;10.98;86.55
15694;BME280;7947;48.834;9.132;2022-12-22T01:29:40;97602.13;;;11.04;87.12
15694;BME280;7947;48.834;9.132;2022-12-22T01:33:02;97598.00;;;10.93;87.45
15694;BME280;7947;48.834;9.132;2022-12-22T01:36:22;97596.63;;;10.95;88.07
15694;BME280;7947;48.834;9.132;2022-12-22T01:39:42;97589.16;;;10.92;88.76
15694;BME280;7947;48.834;9.132;2022-12-22T01:43:18;97574.00;;;10.82;90.55
15694;BME280;7947;48.834;9.132;2022-12-22T01:46:41;97562.34;;;10.73;91.81
15694;BME280;7947;48.834;9.132;2022-12-22T01:50:03;97564.72;;;10.75;91.42
15694;BME280;7947;48.834;9.132;2022-12-22T01:53:26;97559.66;;;10.73;91.93
15694;BME280;7947;48.834;9.132;2022-12-22T01:56:48;97553.78;;;10.71;91.73
15694;BME280;7947;48.834;9.132;2022-12-22T02:00:09;97559.22;;;10.66;92.24
15694;BME280;7947;48.834;9.132;2022-12-22T02:03:30;97550.06;;;10.67;92.31
15694;BME280;7947;48.834;9.132;2022-12-22T02:06:54;97551.81;;;10.58;93.10
15694;BME280;7947;48.834;9.132;2022-12-22T02:10:32;97554.75;;;10.57;92.84
15694;BME280;7947;48.834;9.132;2022-12-22T02:14:08;97547.31;;;10.54;92.93
15694;BME280;7947;48.834;9.132;2022-12-22T02:17:36;97538.75;;;10.52;92.32
15694;BME280;7947;48.834;9.132;2022-12-22T02:20:59;97548.47;;;10.48;93.21
15694;BME280;7947;48.834;9.132;2022-12-22T02:24:31;97556.22;;;10.49;93.40
15694;BME280;7947;48.834;9.132;2022-12-22T02:27:55;97566.19;;;10.44;93.14
15694;BME280;7947;48.834;9.132;2022-12-22T02:31:16;97565.00;;;10.55;92.40
15694;BME280;7947;48.834;9.132;2022-12-22T02:34:37;97567.69;;;10.55;92.46
15694;BME280;7947;48.834;9.132;2022-12-22T02:38:03;97565.00;;;10.55;92.28
15694;BME280;7947;48.834;9.132;2022-12-22T02:41:34;97546.47;;;10.58;92.44
15694;BME280;7947;48.834;9.132;2022-12-22T02:45:07;97556.59;;;10.61;91.58
15694;BME280;7947;48.834;9.132;2022-12-22T02:48:38;97544.84;;;10.57;92.50
15694;BME280;7947;48.834;9.132;2022-12-22T02:52:04;97542.97;;;10.58;92.28
15694;BME280;7947;48.834;9.132;2022-12-22T02:55:28;97532.03;;;10.73;91.55
15694;BME280;7947;48.834;9.132;2022-12-22T02:58:49;97522.03;;;10.78;91.51
15694;BME280;7947;48.834;9.132;2022-12-22T03:02:12;97531.72;;;10.74;91.25
15694;BME280;7947;48.834;9.132;2022-12-22T03:05:32;97525.09;;;10.72;91.77
15694;BME280;7947;48.834;9.132;2022-12-22T03:08:52;97530.97;;;10.74;91.56
15694;BME280;7947;48.834;9.132;2022-12-22T03:12:13;97524.84;;;10.68;92.00
15694;BME280;7947;48.834;9.132;2022-12-22T03:15:33;97520.44;;;10.77;91.27
15694;BME280;7947;48.834;9.132;2022-12-22T03:18:54;97511.38;;;10.73;92.10
15694;BME280;7947;48.834;9.132;2022-12-22T03:22:14;97509.06;;;10.67;91.49
15694;BME280;7947;48.834;9.132;2022-12-22T03:25:34;97487.75;;;10.75;91.48
15694;BME280;7947;48.834;9.132;2022-12-22T03:28:53;97479.56;;;10.67;91.68
15694;BME280;7947;48.834;9.132;2022-12-22T03:31:56;97472.16;;;10.59;91.98
15694;BME280;7947;48.834;9.132;2022-12-22T03:35:00;97467.03;;;10.62;92.14
15694;BME280;7947;48.834;9.132;2022-12-22T03:38:03;97457.31;;;10.66;91.84
15694;BME280;7947;48.834;9.132;2022-12-22T03:41:06;97458.63;;;10.69;91.41
15694;BME280;7947;48.834;9.132;2022-12-22T03:44:08;97458.25;;;10.75;90.41
15694;BME280;7947;48.834;9.132;2022-12-22T03:47:29;97452.88;;;10.75;90.12
15694;BME280;7947;48.834;9.132;2022-12-22T03:50:33;97466.72;;;10.82;90.10
15694;BME280;7947;48.834;9.132;2022-12-22T03:53:36;97465.34;;;10.85;89.84
15694;BME280;7947;48.834;9.132;2022-12-22T03:56:39;97460.19;;;10.88;90.29
15694;BME280;7947;48.834;9.132;2022-12-22T03:59:42;97462.38;;;10.86;90.30
15694;BME280;7947;48.834;9.132;2022-12-22T04:02:48;97457.44;;;10.94;89.80
15694;BME280;7947;48.834;9.132;2022-12-22T04:05:52;97457.13;;;10.95;89.28
15694;BME280;7947;48.834;9.132;2022-12-22T04:08:55;97452.53;;;10.96;89.49
15694;BME280;7947;48.834;9.132;2022-12-22T04:11:58;97442.31;;;10.98;89.68
15694;BME280;7947;48.834;9.132;2022-12-22T04:15:18;97449.00;;;11.00;88.91
15694;BME280;7947;48.834;9.132;2022-12-22T04:18:21;97453.28;;;11.01;89.38
15694;BME280;7947;48.834;9.132;2022-12-22T04:21:25;97445.94;;;11.07;87.80
15694;BME280;7947;48.834;9.132;2022-12-22T04:24:28;97445.84;;;11.12;88.10
15694;BME280;7947;48.834;9.132;2022-12-22T04:27:31;97429.25;;;11.10;88.38
15694;BME280;7947;48.834;9.132;2022-12-22T04:30:34;97435.63;;;11.14;88.64
15694;BME280;7947;48.834;9.132;2022-12-22T04:33:37;97422.59;;;11.21;88.26
15694;BME280;7947;48.834;9.132;2022-12-22T04:36:41;97409.50;;;11.19;87.66
15694;BME280;7947;48.834;9.132;2022-12-22T04:39:44;97412.56;;;11.13;88.53
15694;BME280;7947;48.834;9.132;2022-12-22T04:42:47;97410.16;;;11.11;89.07
15694;BME280;7947;48.834;9.132;2022-12-22T04:45:51;97411.28;;;11.10;88.81
15694;BME280;7947;48.834;9.132;2022-12-22T04:48:54;97412.34;;;11.09;89.57
15694;BME280;7947;48.834;9.132;2022-12-22T04:52:02;97411.94;;;11.02;89.92
15694;BME280;7947;48.834;9.132;2022-12-22T04:55:05;97406.69;;;11.11;89.32
15694;BME280;7947;48.834;9.132;2022-12-22T04:58:09;97414.63;;;11.02;89.46
15694;BME280;7947;48.834;9.132;2022-12-22T05:01:14;97413.31;;;11.00;89.93
15694;BME280;7947;48.834;9.132;2022-12-22T05:04:17;97407.44;;;10.98;90.03
15694;BME280;7947;48.834;9.132;2022-12-22T05:07:26;97409.94;;;10.94;90.24
15694;BME280;7947;48.834;9.132;2022-12-22T05:10:29;97417.19;;;10.94;90.29
15694;BME280;7947;48.834;9.132;2022-12-22T05:13:32;97413.91;;;10.97;90.22
15694;BME280;7947;48.834;9.132;2022-12-22T05:16:35;97415.00;;;10.96;90.68
15694;BME280;7947;48.834;9.132;2022-12-22T05:19:38;97415.78;;;10.96;90.46
15694;BME280;7947;48.834;9.132;2022-12-22T05:22:42;97406.75;;;10.92;90.61
15694;BME280;7947;48.834;9.132;2022-12-22T05:25:46;97404.88;;;10.93;90.71
15694;BME280;7947;48.834;9.132;2022-12-22T05:28:49;97396.00;;;10.92;90.40
15694;BME280;7947;48.834;9.132;2022-12-22T05:31:51;97399.69;;;10.96;89.98
15694;BME280;7947;48.834;9.132;2022-12-22T05:34:54;97408.88;;;11.09;89.62
15694;BME280;7947;48.834;9.132;2022-12-22T05:37:58;97396.03;;;11.06;89.08
15694;BME280;7947;48.834;9.132;2022-12-22T05:41:01;97412.66;;;11.08;88.95
15694;BME280;7947;48.834;9.132;2022-12-22T05:44:05;97403.53;;;11.09;88.65
15694;BME280;7947;48.834;9.132;2022-12-22T05:47:08;97399.63;;;11.01;88.99
15694;BME280;7947;48.834;9.132;2022-12-22T05:50:12;97400.63;;;11.05;89.12
15694;BME280;7947;48.834;9.132;2022-12-22T05:53:16;97396.94;;;11.01;89.38
15694;BME280;7947;48.834;9.132;2022-12-22T05:56:19;97386.59;;;10.95;89.49
15694;BME280;7947;48.834;9.132;2022-12-22T05:59:21;97381.91;;;10.86;89.98
15694;BME280;7947;48.834;9.132;2022-12-22T06:02:24;97383.06;;;10.80;90.62
15694;BME280;7947;48.834;9.132;2022-12-22T06:05:27;97384.97;;;10.80;90.43
15694;BME280;7947;48.834;9.132;2022-12-22T06:08:32;97387.16;;;10.78;90.07
15694;BME280;7947;48.834;9.132;2022-12-22T06:11:34;97389.59;;;10.74;90.45
15694;BME280;7947;48.834;9.132;2022-12-22T06:14:37;97386.41;;;10.72;90.72
15694;BME280;7947;48.834;9.132;2022-12-22T06:17:40;97386.16;;;10.74;90.32
15694;BME280;7947;48.834;9.132;2022-12-22T06:20:45;97387.56;;;10.85;89.38
15694;BME280;7947;48.834;9.132;2022-12-22T06:23:49;97391.13;;;10.80;89.33
15694;BME280;7947;48.834;9.132;2022-12-22T06:26:55;97388.94;;;10.82;88.50
15694;BME280;7947;48.834;9.132;2022-12-22T06:29:58;97381.91;;;10.86;88.21
15694;BME280;7947;48.834;9.132;2022-12-22T06:33:00;97374.06;;;10.90;87.82
15694;BME280;7947;48.834;9.132;2022-12-22T06:36:04;97378.66;;;10.89;87.35
15694;BME280;7947;48.834;9.132;2022-12-22T06:39:08;97383.53;;;11.01;86.50
15694;BME280;7947;48.834;9.132;2022-12-22T06:42:11;97393.97;;;11.03;86.52
15694;BME280;7947;48.834;9.132;2022-12-22T06:45:32;97398.84;;;11.14;85.34
15694;BME280;7947;48.834;9.132;2022-12-22T06:48:35;97381.88;;;11.19;85.28
15694;BME280;7947;48.834;9.132;2022-12-22T06:51:38;97390.63;;;11.24;85.07
15694;BME280;7947;48.834;9.132;2022-12-22T06:54:42;97396.00;;;11.24;84.82
15694;BME280;7947;48.834;9.132;2022-12-22T06:57:45;97393.00;;;11.26;84.18
15694;BME280;7947;48.834;9.132;2022-12-22T07:00:48;97393.50;;;11.28;83.97
15694;BME280;7947;48.834;9.132;2022-12-22T07:03:51;97402.56;;;11.32;83.47
15694;BME280;7947;48.834;9.132;2022-12-22T07:06:54;97405.03;;;11.28;83.53
15694;BME280;7947;48.834;9.132;2022-12-22T07:09:58;97411.78;;;11.26;83.21
15694;BME280;7947;48.834;9.132;2022-12-22T07:13:01;97434.34;;;11.25;83.20
15694;BME280;7947;48.834;9.132;2022-12-22T07:16:20;97428.41;;;11.41;82.15
15694;BME280;7947;48.834;9.132;2022-12-22T07:19:23;97408.94;;;11.36;82.59
15694;BME280;7947;48.834;9.132;2022-12-22T07:22:25;97406.75;;;11.38;82.43
15694;BME280;7947;48.834;9.132;2022-12-22T07:25:32;97417.34;;;11.29;82.80
15694;BME280;7947;48.834;9.132;2022-12-22T07:28:37;97424.09;;;11.27;83.34
15694;BME280;7947;48.834;9.132;2022-12-22T07:31:40;97438.53;;;11.31;82.07
15694;BME280;7947;48.834;9.132;2022-12-22T07:34:43;97432.69;;;11.42;81.63
15694;BME280;7947;48.834;9.132;2022-12-22T07:37:46;97433.28;;;11.39;81.56
15694;BME280;7947;48.834;9.132;2022-12-22T07:40:56;97435.56;;;11.32;81.70
15694;BME280;7947;48.834;9.132;2022-12-22T07:44:05;97427.22;;;11.34;81.45
15694;BME280;7947;48.834;9.132;2022-12-22T07:47:08;97437.03;;;11.25;81.37
15694;BME280;7947;48.834;9.132;2022-12-22T07:50:12;97442.69;;;11.23;81.36
15694;BME280;7947;48.834;9.132;2022-12-22T07:53:28;97433.25;;;11.26;81.82
15694;BME280;7947;48.834;9.132;2022-12-22T07:56:32;97412.19;;;11.33;81.33
15694;BME280;7947;48.834;9.132;2022-12-22T07:59:35;97419.25;;;11.29;81.70
15694;BME280;7947;48.834;9.132;2022-12-22T08:02:38;97423.53;;;11.30;81.26
15694;BME280;7947;48.834;9.132;2022-12-22T08:05:42;97423.84;;;11.28;81.23
15694;BME280;7947;48.834;9.132;2022-12-22T08:08:46;97428.97;;;11.25;81.43
15694;BME280;7947;48.834;9.132;2022-12-22T08:11:50;97427.03;;;11.30;81.84
15694;BME280;7947;48.834;9.132;2022-12-22T08:14:53;97426.91;;;11.35;82.71
15694;BME280;7947;48.834;9.132;2022-12-22T08:17:55;97419.66;;;11.36;82.27
15694;BME280;7947;48.834;9.132;2022-12-22T08:20:58;97433.97;;;11.31;82.98
15694;BME280;7947;48.834;9.132;2022-12-22T08:24:01;97427.28;;;11.29;82.54
15694;BME280;7947;48.834;9.132;2022-12-22T08:27:10;97429.91;;;11.34;82.63
15694;BME280;7947;48.834;9.132;2022-12-22T08:30:14;97426.63;;;11.37;82.09
15694;BME280;7947;48.834;9.132;2022-12-22T08:33:17;97423.63;;;11.38;81.68
15694;BME280;7947;48.834;9.132;2022-12-22T08:36:23;97433.09;;;11.36;81.51
15694;BME280;7947;48.834;9.132;2022-12-22T08:39:27;97434.16;;;11.35;81.18
15694;BME280;7947;48.834;9.132;2022-12-22T08:42:33;97446.41;;;11.41;81.63
15694;BME280;7947;48.834;9.132;2022-12-22T08:45:36;97447.41;;;11.45;80.99
15694;BME280;7947;48.834;9.132;2022-12-22T08:48:40;97436.38;;;11.46;80.60
15694;BME280;7947;48.834;9.132;2022-12-22T08:51:44;97444.41;;;11.46;81.02
15694;BME280;7947;48.834;9.132;2022-12-22T08:54:47;97445.34;;;11.55;80.55
15694;BME280;7947;48.834;9.132;2022-12-22T08:57:51;97434.09;;;11.53;81.44
15694;BME280;7947;48.834;9.132;2022-12-22T09:00:56;97425.75;;;11.55;80.94
15694;BME280;7947;48.834;9.132;2022-12-22T09:03:59;97428.94;;;11.57;80.91
15694;BME280;7947;48.834;9.132;2022-12-22T09:07:02;97429.84;;;11.66;79.77
15694;BME280;7947;48.834;9.132;2022-12-22T09:10:06;97423.16;;;11.91;78.35
15694;BME280;7947;48.834;9.132;2022-12-22T09:13:10;97436.31;;;12.06;77.30
15694;BME280;7947;48.834;9.132;2022-12-22T09:16:13;97446.94;;;12.11;76.59
15694;BME280;7947;48.834;9.132;2022-12-22T09:19:16;97461.97;;;12.12;76.89
15694;BME280;7947;48.834;9.132;2022-12-22T09:22:19;97456.38;;;12.08;78.20
15694;BME280;7947;48.834;9.132;2022-12-22T09:25:29;97448.53;;;11.98;80.16
15694;BME280;7947;48.834;9.132;2022-12-22T09:28:34;97449.34;;;11.85;80.74
15694;BME280;7947;48.834;9.132;2022-12-22T09:31:36;97450.53;;;11.79;81.69
15694;BME280;7947;48.834;9.132;2022-12-22T09:34:42;97459.78;;;11.73;83.36
15694;BME280;7947;48.834;9.132;2022-12-22T09:37:44;97467.22;;;11.62;82.48
15694;BME280;7947;48.834;9.132;2022-12-22T09:40:47;97471.47;;;11.63;83.34
15694;BME280;7947;48.834;9.132;2022-12-22T09:43:51;97472.59;;;11.62;83.51
15694;BME280;7947;48.834;9.132;2022-12-22T09:46:56;97467.78;;;11.59;84.25
15694;BME280;7947;48.834;9.132;2022-12-22T09:50:00;97468.22;;;11.53;84.78
15694;BME280;7947;48.834;9.132;2022-12-22T09:53:04;97465.81;;;11.51;85.28
15694;BME280;7947;48.834;9.132;2022-12-22T09:56:10;97458.75;;;11.42;85.84
15694;BME280;7947;48.834;9.132;2022-12-22T09:59:17;97458.81;;;11.37;85.72
15694;BME280;7947;48.834;9.132;2022-12-22T10:02:24;97468.56;;;11.33;86.20
15694;BME280;7947;48.834;9.132;2022-12-22T10:05:35;97471.38;;;11.41;85.63
15694;BME280;7947;48.834;9.132;2022-12-22T10:08:39;97465.59;;;11.48;85.39
15694;BME280;7947;48.834;9.132;2022-12-22T10:11:49;97487.88;;;11.48;85.21
15694;BME280;7947;48.834;9.132;2022-12-22T10:14:53;97485.69;;;11.50;85.38
15694;BME280;7947;48.834;9.132;2022-12-22T10:18:08;97490.09;;;11.60;85.38
15694;BME280;7947;48.834;9.132;2022-12-22T10:21:12;97501.94;;;11.59;85.66
15694;BME280;7947;48.834;9.132;2022-12-22T10:24:17;97488.13;;;11.65;86.14
15694;BME280;7947;48.834;9.132;2022-12-22T10:27:30;97499.25;;;11.59;86.14
15694;BME280;7947;48.834;9.132;2022-12-22T10:30:37;97505.50;;;11.54;86.68
15694;BME280;7947;48.834;9.132;2022-12-22T10:33:42;97513.94;;;11.48;87.54
15694;BME280;7947;48.834;9.132;2022-12-22T10:36:49;97512.94;;;11.44;88.29
15694;BME280;7947;48.834;9.132;2022-12-22T10:39:53;97502.28;;;11.39;88.10
15694;BME280;7947;48.834;9.132;2022-12-22T10:42:56;97494.34;;;11.47;88.72
15694;BME280;7947;48.834;9.132;2022-12-22T10:46:01;97501.63;;;11.60;88.31
15694;BME280;7947;48.834;9.132;2022-12-22T10:49:09;97496.38;;;11.55;88.75
15694;BME280;7947;48.834;9.132;2022-12-22T10:52:15;97490.69;;;11.57;88.69
15694;BME280;7947;48.834;9.132;2022-12-22T10:55:26;97484.41;;;11.61;88.48
15694;BME280;7947;48.834;9.132;2022-12-22T10:58:46;97486.81;;;11.63;88.60
15694;BME280;7947;48.834;9.132;2022-12-22T11:01:50;97479.34;;;11.60;87.80
15694;BME280;7947;48.834;9.132;2022-12-22T11:04:57;97481.38;;;11.68;87.74
15694;BME280;7947;48.834;9.132;2022-12-22T11:08:14;97492.81;;;11.87;86.40
15694;BME280;7947;48.834;9.132;2022-12-22T11:11:33;97491.75;;;11.88;87.19
15694;BME280;7947;48.834;9.132;2022-12-22T11:14:50;97478.41;;;11.97;86.08
15694;BME280;7947;48.834;9.132;2022-12-22T11:18:13;97474.50;;;12.03;86.47
15694;BME280;7947;48.834;9.132;2022-12-22T11:21:30;97491.47;;;12.52;83.89
15694;BME280;7947;48.834;9.132;2022-12-22T11:24:47;97473.84;;;13.18;81.39
15694;BME280;7947;48.834;9.132;2022-12-22T11:28:08;97468.38;;;13.62;79.56
15694;BME280;7947;48.834;9.132;2022-12-22T11:31:29;97476.03;;;13.77;76.45
15694;BME280;7947;48.834;9.132;2022-12-22T11:34:52;97482.81;;;13.66;76.58
15694;BME280;7947;48.834;9.132;2022-12-22T11:38:12;97483.22;;;13.51;76.07
15694;BME280;7947;48.834;9.132;2022-12-22T11:41:41;97498.25;;;13.21;78.00
15694;BME280;7947;48.834;9.132;2022-12-22T11:44:58;97485.31;;;13.32;77.35
15694;BME280;7947;48.834;9.132;2022-12-22T11:48:23;97488.78;;;13.94;75.05
15694;BME280;7947;48.834;9.132;2022-12-22T11:51:46;97479.34;;;14.13;72.91
15694;BME280;7947;48.834;9.132;2022-12-22T11:55:16;97485.16;;;13.90;73.57
15694;BME280;7947;48.834;9.132;2022-12-22T11:58:42;97488.66;;;13.99;73.37
15694;BME280;7947;48.834;9.132;2022-12-22T12:05:39;97488.22;;;15.13;68.64
15694;BME280;7947;48.834;9.132;2022-12-22T12:09:00;97496.63;;;15.28;67.63
15694;BME280;7947;48.834;9.132;2022-12-22T12:12:19;97495.22;;;15.05;67.48
15694;BME280;7947;48.834;9.132;2022-12-22T12:15:32;97491.97;;;15.63;67.46
15694;BME280;7947;48.834;9.132;2022-12-22T12:18:54;97517.19;;;16.80;62.21
15694;BME280;7947;48.834;9.132;2022-12-22T12:22:08;97516.38;;;16.59;60.32
15694;BME280;7947;48.834;9.132;2022-12-22T12:25:27;97510.28;;;16.04;63.20
15694;BME280;7947;48.834;9.132;2022-12-22T12:28:41;97509.84;;;16.22;62.49
15694;BME280;7947;48.834;9.132;2022-12-22T12:32:01;97504.69;;;16.67;60.82
15694;BME280;7947;48.834;9.132;2022-12-22T12:35:41;97517.19;;;16.80;60.16
15694;BME280;7947;48.834;9.132;2022-12-22T12:39:00;97517.78;;;15.98;62.96
15694;BME280;7947;48.834;9.132;2022-12-22T12:42:27;97529.03;;;15.46;65.33
15694;BME280;7947;48.834;9.132;2022-12-22T12:45:43;97535.84;;;14.75;67.18
15694;BME280;7947;48.834;9.132;2022-12-22T12:48:53;97546.47;;;14.23;69.27
15694;BME280;7947;48.834;9.132;2022-12-22T12:52:06;97539.50;;;13.83;70.83
15694;BME280;7947;48.834;9.132;2022-12-22T12:55:24;97549.13;;;13.53;72.74
15694;BME280;7947;48.834;9.132;2022-12-22T12:58:52;97545.91;;;13.43;73.74
15694;BME280;7947;48.834;9.132;2022-12-22T13:02:02;97550.75;;;13.54;74.15
15694;BME280;7947;48.834;9.132;2022-12-22T13:12:38;97568.97;;;13.80;72.56
15694;BME280;7947;48.834;9.132;2022-12-22T13:19:46;97580.50;;;14.02;71.48
15694;BME280;7947;48.834;9.132;2022-12-22T13:22:55;97590.03;;;14.08;70.66
15694;BME280;7947;48.834;9.132;2022-12-22T13:26:06;97580.00;;;14.00;70.75
15694;BME280;7947;48.834;9.132;2022-12-22T13:29:18;97596.03;;;13.75;72.95
15694;BME280;7947;48.834;9.132;2022-12-22T13:32:32;97596.84;;;13.75;73.62
15694;BME280;7947;48.834;9.132;2022-12-22T13:35:41;97594.03;;;15.32;68.07
15694;BME280;7947;48.834;9.132;2022-12-22T13:38:59;97595.72;;;15.96;64.50
15694;BME280;7947;48.834;9.132;2022-12-22T13:42:09;97601.47;;;16.79;60.39
15694;BME280;7947;48.834;9.132;2022-12-22T13:45:30;97599.13;;;16.69;60.04
15694;BME280;7947;48.834;9.132;2022-12-22T13:48:41;97606.00;;;16.20;61.11
15694;BME280;7947;48.834;9.132;2022-12-22T13:51:49;97611.53;;;15.34;63.51
15694;BME280;7947;48.834;9.132;2022-12-22T13:54:57;97620.09;;;14.55;66.79
15694;BME280;7947;48.834;9.132;2022-12-22T13:58:07;97626.63;;;14.01;69.50
15694;BME280;7947;48.834;9.132;2022-12-22T14:01:22;97633.81;;;13.61;71.05
15694;BME280;7947;48.834;9.132;2022-12-22T14:04:30;97631.91;;;13.39;72.07
15694;BME280;7947;48.834;9.132;2022-12-22T14:07:56;97633.66;;;13.22;72.61
15694;BME280;7947;48.834;9.132;2022-12-22T14:11:02;97637.97;;;13.09;73.05
15694;BME280;7947;48.834;9.132;2022-12-22T14:14:17;97642.56;;;12.95;74.62
15694;BME280;7947;48.834;9.132;2022-12-22T14:17:35;97646.44;;;12.89;74.23
15694;BME280;7947;48.834;9.132;2022-12-22T14:20:55;97642.56;;;12.82;74.52
15694;BME280;7947;48.834;9.132;2022-12-22T14:24:04;97641.97;;;12.85;74.21
15694;BME280;7947;48.834;9.132;2022-12-22T14:27:23;97641.56;;;12.78;74.80
15694;BME280;7947;48.834;9.132;2022-12-22T14:30:45;97647.88;;;12.73;74.75
15694;BME280;7947;48.834;9.132;2022-12-22T14:34:23;97645.25;;;12.82;73.83
15694;BME280;7947;48.834;9.132;2022-12-22T14:37:35;97638.59;;;12.79;73.69
15694;BME280;7947;48.834;9.132;2022-12-22T14:40:52;97641.28;;;12.79;73.44
15694;BME280;7947;48.834;9.132;2022-12-22T14:44:02;97645.38;;;12.77;74.45
15694;BME280;7947;48.834;9.132;2022-12-22T14:47:15;97646.75;;;12.60;75.32
15694;BME280;7947;48.834;9.132;2022-12-22T14:50:24;97649.56;;;12.55;75.18
15694;BME280;7947;48.834;9.132;2022-12-22T14:53:38;97655.81;;;12.51;75.62
15694;BME280;7947;48.834;9.132;2022-12-22T14:56:51;97658.44;;;12.56;74.54
15694;BME280;7947;48.834;9.132;2022-12-22T15:00:03;97656.63;;;12.51;74.68
15694;BME280;7947;48.834;9.132;2022-12-22T15:03:29;97654.75;;;12.52;74.34
15694;BME280;7947;48.834;9.132;2022-12-22T15:06:40;97662.19;;;12.41;74.78
15694;BME280;7947;48.834;9.132;2022-12-22T15:09:59;97676.94;;;12.44;74.81
15694;BME280;7947;48.834;9.132;2022-12-22T15:13:22;97676.94;;;12.44;74.62
15694;BME280;7947;48.834;9.132;2022-12-22T15:16:34;97676.53;;;12.37;74.70
15694;BME280;7947;48.834;9.132;2022-12-22T15:19:41;97682.88;;;12.27;75.42
15694;BME280;7947;48.834;9.132;2022-12-22T15:22:48;97688.56;;;12.26;76.31
15694;BME280;7947;48.834;9.132;2022-12-22T15:25:57;97688.47;;;12.17;76.59
15694;BME280;7947;48.834;9.132;2022-12-22T15:29:05;97691.22;;;12.12;76.48
15694;BME280;7947;48.834;9.132;2022-12-22T15:32:12;97686.94;;;12.11;76.87
15694;BME280;7947;48.834;9.132;2022-12-22T15:35:23;97689.13;;;12.09;77.11
15694;BME280;7947;48.834;9.132;2022-12-22T15:38:31;97690.31;;;12.03;77.26
15694;BME280;7947;48.834;9.132;2022-12-22T15:41:42;97686.91;;;11.98;77.78
15694;BME280;7947;48.834;9.132;2022-12-22T15:44:49;97692.09;;;11.94;78.35
15694;BME280;7947;48.834;9.132;2022-12-22T15:47:56;97692.59;;;11.96;78.00
15694;BME280;7947;48.834;9.132;2022-12-22T15:51:06;97690.47;;;11.93;77.98
15694;BME280;7947;48.834;9.132;2022-12-22T15:54:14;97693.16;;;11.93;78.07
15694;BME280;7947;48.834;9.132;2022-12-22T15:57:23;97685.47;;;11.87;78.74
15694;BME280;7947;48.834;9.132;2022-12-22T16:00:30;97690.06;;;11.86;78.79
15694;BME280;7947;48.834;9.132;2022-12-22T16:03:36;97693.81;;;11.85;78.74
15694;BME280;7947;48.834;9.132;2022-12-22T16:06:43;97691.72;;;11.82;79.16
15694;BME280;7947;48.834;9.132;2022-12-22T16:09:50;97698.38;;;11.71;79.21
15694;BME280;7947;48.834;9.132;2022-12-22T16:13:01;97694.94;;;11.65;80.14
15694;BME280;7947;48.834;9.132;2022-12-22T16:16:08;97687.94;;;11.64;79.50
15694;BME280;7947;48.834;9.132;2022-12-22T16:19:17;97686.34;;;11.63;79.75
15694;BME280;7947;48.834;9.132;2022-12-22T16:22:31;97685.63;;;11.58;79.38
15694;BME280;7947;48.834;9.132;2022-12-22T16:25:38;97685.41;;;11.54;79.87
15694;BME280;7947;48.834;9.132;2022-12-22T16:28:46;97682.31;;;11.47;79.97
15694;BME280;7947;48.834;9.132;2022-12-22T16:31:53;97683.75;;;11.40;80.44
15694;BME280;7947;48.834;9.132;2022-12-22T16:35:21;97681.94;;;11.35;80.58
15694;BME280;7947;48.834;9.132;2022-12-22T16:38:28;97669.09;;;11.32;79.84
15694;BME280;7947;48.834;9.132;2022-12-22T16:41:35;97667.78;;;11.30;80.28
15694;BME280;7947;48.834;9.132;2022-12-22T16:44:46;97670.69;;;11.33;79.96
15694;BME280;7947;48.834;9.132;2022-12-22T16:48:09;97673.38;;;11.33;79.75
15694;BME280;7947;48.834;9.132;2022-12-22T16:51:26;97665.16;;;11.25;79.06
15694;BME280;7947;48.834;9.132;2022-12-22T16:54:33;97665.44;;;11.23;79.47
15694;BME280;7947;48.834;9.132;2022-12-22T16:57:39;97665.25;;;11.20;78.94
15694;BME280;7947;48.834;9.132;2022-12-22T17:00:51;97669.47;;;11.26;78.89
15694;BME280;7947;48.834;9.132;2022-12-22T17:04:06;97672.66;;;11.28;78.89
15694;BME280;7947;48.834;9.132;2022-12-22T17:07:13;97672.13;;;11.26;79.41
15694;BME280;7947;48.834;9.132;2022-12-22T17:10:20;97673.81;;;11.22;79.44
15694;BME280;7947;48.834;9.132;2022-12-22T17:13:25;97676.28;;;11.18;79.48
15694;BME280;7947;48.834;9.132;2022-12-22T17:16:29;97666.81;;;11.21;79.83
15694;BME280;7947;48.834;9.132;2022-12-22T17:19:35;97660.97;;;11.19;80.07
15694;BME280;7947;48.834;9.132;2022-12-22T17:22:39;97657.50;;;11.18;80.10